Time;durP1;ratioP1;P1;durP2;ratioP2;P2;SDS_P1;SDS_P2;PMS_P1;PMS_P2;Temp;Humidity;BMP_temperature;BMP_pressure;BME280_temperature;BME280_humidity;BME280_pressure;Samples;Min_cycle;Max_cycle;Signal;HPM_P1;HPM_P2
2022/08/19 00:02:08;;;;;;;13.43;10.80;;;21.30;97.30;;;22.14;98.77;97811.81;5069088;28;20468;-82
2022/08/19 00:04:37;;;;;;;13.77;10.97;;;21.20;97.30;;;22.17;98.67;97814.75;5063826;28;20459;-82
2022/08/19 00:07:08;;;;;;;18.40;11.30;;;21.30;97.30;;;22.17;98.82;97814.75;5064489;28;20533;-82
2022/08/19 00:09:38;;;;;;;23.10;10.90;;;21.30;97.30;;;22.16;98.75;97817.66;5062683;28;20966;-82
2022/08/19 00:12:07;;;;;;;14.63;11.23;;;21.20;97.40;;;22.14;99.27;97815.28;5063788;28;21174;-82
2022/08/19 00:14:39;;;;;;;14.53;11.63;;;21.20;97.50;;;22.11;99.40;97813.13;5062422;28;20466;-81
2022/08/19 00:17:10;;;;;;;15.30;11.67;;;21.20;97.60;;;22.10;100.00;97814.22;5064477;28;20480;-82
2022/08/19 00:19:39;;;;;;;18.70;12.73;;;21.10;97.70;;;22.07;100.00;97814.75;5065412;28;20492;-82
2022/08/19 00:22:08;;;;;;;14.17;10.47;;;21.10;97.70;;;22.05;100.00;97806.19;5063285;28;20827;-82
2022/08/19 00:24:37;;;;;;;14.50;10.90;;;21.10;97.70;;;22.06;99.98;97805.94;5061773;28;20942;-82
2022/08/19 00:27:07;;;;;;;13.60;11.07;;;21.20;97.50;;;22.07;99.98;97804.09;5064290;28;20498;-82
2022/08/19 00:29:55;;;;;;;11.93;10.23;;;21.10;97.60;;;22.05;100.00;97800.88;5063342;28;20946;-82
2022/08/19 00:32:25;;;;;;;14.00;10.30;;;21.10;97.60;;;22.04;100.00;97801.97;5062303;28;20490;-83
2022/08/19 00:34:54;;;;;;;13.57;10.70;;;21.10;97.70;;;21.99;100.00;97796.63;5062912;28;20842;-81
2022/08/19 00:37:25;;;;;;;16.33;10.93;;;21.00;97.70;;;21.96;100.00;97791.81;5062830;28;20518;-82
2022/08/19 00:39:56;;;;;;;12.40;10.87;;;21.00;97.70;;;21.95;100.00;97792.88;5064154;28;20539;-81
2022/08/19 00:42:28;;;;;;;14.80;12.13;;;21.00;97.80;;;21.90;100.00;97788.34;5064007;28;20514;-82
2022/08/19 00:44:58;;;;;;;14.87;10.53;;;21.00;97.80;;;21.87;100.00;97796.03;5064410;28;20456;-81
2022/08/19 00:47:28;;;;;;;20.80;9.87;;;21.00;97.80;;;21.89;100.00;97786.75;5064502;28;20464;-82
2022/08/19 00:49:59;;;;;;;22.23;9.93;;;20.90;97.90;;;21.88;100.00;97785.13;5062067;28;20471;-82
2022/08/19 00:52:33;;;;;;;14.43;10.80;;;20.90;97.90;;;21.89;100.00;97789.41;5062537;28;20556;-81
2022/08/19 00:55:06;;;;;;;16.23;12.27;;;20.80;97.90;;;21.86;100.00;97791.78;5059923;28;21163;-82
2022/08/19 00:57:41;;;;;;;12.40;9.80;;;20.80;97.90;;;21.74;100.00;97794.69;5063002;28;20469;-81
2022/08/19 01:00:17;;;;;;;12.97;10.00;;;20.80;98.00;;;21.76;100.00;97786.47;5062085;28;20460;-82
2022/08/19 01:02:45;;;;;;;12.20;9.70;;;20.70;98.00;;;21.71;100.00;97791.78;5059764;28;20521;-82
2022/08/19 01:05:21;;;;;;;10.80;9.43;;;20.70;98.10;;;21.64;100.00;97788.56;5063042;28;20500;-81
2022/08/19 01:07:51;;;;;;;13.03;10.53;;;20.60;98.50;;;21.63;100.00;97778.97;5063820;28;21176;-82
2022/08/19 01:10:25;;;;;;;12.60;10.00;;;20.70;98.20;;;21.60;100.00;97777.66;5061905;28;20477;-81
2022/08/19 01:12:59;;;;;;;11.63;9.03;;;20.60;98.30;;;21.63;100.00;97776.31;5063195;28;20849;-82
2022/08/19 01:15:34;;;;;;;12.23;9.80;;;20.60;98.10;;;21.61;100.00;97779.25;5062764;28;20527;-81
2022/08/19 01:18:10;;;;;;;13.40;10.10;;;20.60;98.00;;;21.61;100.00;97783.78;5062857;28;20541;-81
2022/08/19 01:20:40;;;;;;;13.00;10.63;;;20.70;98.10;;;21.58;100.00;97769.94;5059281;28;20464;-82
2022/08/19 01:23:12;;;;;;;12.67;9.70;;;20.60;98.20;;;21.56;100.00;97776.56;5061878;28;20465;-81
2022/08/19 01:25:49;;;;;;;11.40;9.50;;;20.60;98.10;;;21.54;100.00;97779.50;5063202;28;20487;-82
2022/08/19 01:28:25;;;;;;;16.23;11.40;;;20.50;98.30;;;21.45;100.00;97775.75;5062489;28;20471;-81
2022/08/19 01:31:11;;;;;;;13.10;10.07;;;20.50;98.30;;;21.37;100.00;97784.25;5063831;28;20460;-81
2022/08/19 01:33:58;;;;;;;11.80;9.70;;;20.40;98.40;;;21.26;100.00;97787.94;5063248;28;20495;-81
2022/08/19 01:36:33;;;;;;;13.43;9.50;;;20.30;98.60;;;21.24;100.00;97779.41;5062552;28;20471;-81
2022/08/19 01:39:07;;;;;;;13.47;9.40;;;20.30;98.60;;;21.17;100.00;97784.22;5061563;28;20879;-81
2022/08/19 01:41:36;;;;;;;12.63;9.50;;;20.30;98.70;;;21.14;100.00;97781.28;5062388;28;20464;-83
2022/08/19 01:44:07;;;;;;;20.43;10.17;;;20.20;98.70;;;21.15;100.00;97773.00;5063568;28;21037;-81
2022/08/19 01:46:49;;;;;;;11.93;9.30;;;20.20;98.70;;;21.15;100.00;97759.72;5060033;28;20491;-81
2022/08/19 01:49:20;;;;;;;15.70;10.30;;;20.10;98.80;;;21.13;100.00;97764.50;5063002;28;21029;-81
2022/08/19 01:51:51;;;;;;;11.03;9.50;;;20.10;98.80;;;21.05;100.00;97773.75;5058366;28;20468;-81
2022/08/19 01:54:24;;;;;;;12.53;10.20;;;20.10;98.90;;;21.03;100.00;97777.75;5061396;28;20508;-81
2022/08/19 01:57:02;;;;;;;12.00;9.20;;;20.10;99.00;;;21.01;100.00;97779.84;5062433;28;20471;-82
2022/08/19 01:59:33;;;;;;;13.83;10.50;;;20.00;99.00;;;21.00;100.00;97783.56;5060594;28;20498;-81
2022/08/19 02:02:02;;;;;;;10.83;8.80;;;20.00;99.10;;;21.00;100.00;97780.91;5061607;28;20531;-83
2022/08/19 02:04:30;;;;;;;16.90;10.27;;;19.90;99.10;;;21.01;100.00;97785.16;5061099;28;20495;-82
2022/08/19 02:06:59;;;;;;;11.00;9.80;;;19.90;99.10;;;20.98;100.00;97775.06;5065113;28;21709;-82
2022/08/19 02:09:31;;;;;;;13.70;10.13;;;19.90;99.20;;;20.91;100.00;97777.94;5060594;28;20492;-81
2022/08/19 02:12:01;;;;;;;14.57;10.90;;;19.90;99.10;;;20.79;100.00;97772.03;5062795;28;20487;-81
2022/08/19 02:14:30;;;;;;;12.33;9.70;;;19.90;99.10;;;20.75;100.00;97778.16;5062761;28;20499;-81
2022/08/19 02:17:02;;;;;;;11.30;9.27;;;19.80;99.30;;;20.74;100.00;97782.66;5063390;28;20537;-81
2022/08/19 02:19:32;;;;;;;10.10;9.00;;;19.80;99.30;;;20.75;100.00;97780.81;5059963;28;20460;-81
2022/08/19 02:22:02;;;;;;;11.83;9.80;;;19.80;99.20;;;20.76;100.00;97785.84;5062227;28;20510;-82
2022/08/19 02:24:31;;;;;;;13.53;10.83;;;19.80;99.20;;;20.74;100.00;97787.97;5063804;28;20968;-82
2022/08/19 02:27:00;;;;;;;11.80;10.30;;;19.80;99.10;;;20.70;100.00;97794.06;5065977;28;20982;-81
2022/08/19 02:29:29;;;;;;;13.93;10.23;;;19.80;99.20;;;20.68;100.00;97801.50;5061663;28;20881;-81
2022/08/19 02:31:57;;;;;;;14.30;10.17;;;19.80;99.00;;;20.65;100.00;97794.03;5060784;28;20445;-81
2022/08/19 02:34:26;;;;;;;12.80;10.10;;;19.70;99.20;;;20.63;100.00;97798.81;5060881;28;20952;-81
2022/08/19 02:36:55;;;;;;;13.00;10.33;;;19.60;99.30;;;20.61;100.00;97792.94;5061568;28;20461;-81
2022/08/19 02:39:31;;;;;;;12.67;10.43;;;19.50;99.50;;;20.52;100.00;97796.09;5059956;28;20461;-81
2022/08/19 02:41:59;;;;;;;13.00;9.97;;;19.50;99.60;;;20.49;100.00;97796.59;5059343;28;20546;-81
2022/08/19 02:44:29;;;;;;;13.00;10.10;;;19.50;99.40;;;20.49;100.00;97799.25;5060479;28;20472;-81
2022/08/19 02:46:59;;;;;;;14.33;10.97;;;19.60;99.40;;;20.48;100.00;97808.28;5062474;28;20461;-81
2022/08/19 02:49:28;;;;;;;13.80;10.07;;;19.50;99.60;;;20.42;100.00;97805.84;5061522;28;20547;-81
2022/08/19 02:52:03;;;;;;;13.67;11.43;;;19.40;99.70;;;20.33;100.00;97802.06;5060412;28;20933;-81
2022/08/19 02:54:33;;;;;;;16.43;10.53;;;19.40;99.80;;;20.30;100.00;97805.25;5060915;28;20588;-81
2022/08/19 02:57:02;;;;;;;13.37;10.17;;;19.30;99.90;;;20.28;100.00;97804.69;5063915;28;20807;-81
2022/08/19 02:59:32;;;;;;;13.40;10.30;;;19.20;99.90;;;20.27;100.00;97803.06;5062538;28;20464;-82
2022/08/19 03:02:01;;;;;;;13.10;10.30;;;19.30;99.90;;;20.25;100.00;97808.63;5059862;28;20530;-81
2022/08/19 03:04:30;;;;;;;14.70;11.17;;;19.30;99.90;;;20.22;100.00;97803.81;5061229;28;20460;-81
2022/08/19 03:06:59;;;;;;;13.87;10.47;;;19.20;99.90;;;20.25;100.00;97818.44;5058907;28;20464;-81
2022/08/19 03:09:42;;;;;;;14.13;10.47;;;19.30;99.70;;;20.24;100.00;97814.97;5059800;28;20500;-81
2022/08/19 03:12:12;;;;;;;13.33;9.67;;;19.30;99.80;;;20.22;100.00;97808.34;5061085;28;20551;-81
2022/08/19 03:14:40;;;;;;;15.67;10.67;;;19.30;99.90;;;20.15;100.00;97807.75;5060217;28;20483;-80
2022/08/19 03:17:10;;;;;;;15.73;10.57;;;19.20;99.90;;;20.11;100.00;97818.06;5061833;28;20469;-81
2022/08/19 03:19:39;;;;;;;12.60;10.13;;;19.20;99.90;;;20.08;100.00;97810.63;5058846;28;21042;-81
2022/08/19 03:22:08;;;;;;;13.27;10.77;;;19.10;99.90;;;20.09;100.00;97806.91;5059474;28;20503;-81
2022/08/19 03:24:37;;;;;;;10.50;8.67;;;19.10;99.90;;;20.10;100.00;97793.38;5058362;28;20468;-81
2022/08/19 03:27:09;;;;;;;13.23;10.17;;;19.10;99.90;;;20.09;100.00;97793.63;5060791;28;20500;-81
2022/08/19 03:29:39;;;;;;;14.90;10.70;;;19.10;99.90;;;20.06;100.00;97804.78;5065376;28;20440;-81
2022/08/19 03:32:12;;;;;;;12.30;9.30;;;19.10;99.90;;;20.04;100.00;97817.47;5063023;28;20997;-81
2022/08/19 03:35:00;;;;;;;16.43;9.93;;;19.10;99.90;;;20.01;100.00;97818.00;5063319;28;20488;-81
2022/08/19 03:37:30;;;;;;;11.67;9.70;;;19.00;99.90;;;20.01;100.00;97812.69;5063201;28;20537;-80
2022/08/19 03:39:59;;;;;;;15.63;10.30;;;19.00;99.90;;;20.03;100.00;97813.22;5064966;28;20464;-81
2022/08/19 03:42:30;;;;;;;12.60;10.30;;;18.90;99.90;;;20.03;100.00;97810.56;5064128;28;20479;-81
2022/08/19 03:45:19;;;;;;;14.50;10.30;;;19.00;99.90;;;19.97;100.00;97812.38;5063196;28;20495;-81
2022/08/19 03:47:48;;;;;;;12.60;10.30;;;18.90;99.90;;;19.92;100.00;97809.69;5065829;28;20888;-81
2022/08/19 03:50:18;;;;;;;14.00;9.50;;;18.90;99.90;;;19.93;100.00;97807.81;5064104;28;20460;-81
2022/08/19 03:52:51;;;;;;;15.43;10.53;;;18.90;99.90;;;19.87;100.00;97806.19;5061950;28;20845;-81
2022/08/19 03:55:20;;;;;;;15.33;10.13;;;18.90;99.90;;;19.86;100.00;97812.53;5065430;28;20602;-81
2022/08/19 03:57:51;;;;;;;14.50;10.30;;;18.90;99.90;;;19.84;100.00;97807.50;5063330;28;20531;-81
2022/08/19 04:00:26;;;;;;;12.87;9.57;;;18.90;99.90;;;19.81;100.00;97808.00;5061689;28;20550;-81
2022/08/19 04:02:55;;;;;;;11.43;9.27;;;18.90;99.90;;;19.76;100.00;97810.59;5063248;28;20533;-81
2022/08/19 04:05:29;;;;;;;12.83;9.40;;;18.90;99.90;;;19.73;100.00;97812.94;5062007;28;20556;-80
2022/08/19 04:07:58;;;;;;;12.90;10.03;;;18.80;99.90;;;19.73;100.00;97820.91;5067604;28;20468;-81
2022/08/19 04:10:28;;;;;;;11.50;9.83;;;18.70;99.90;;;19.71;100.00;97829.16;5060833;28;20964;-79
2022/08/19 04:12:59;;;;;;;11.07;9.20;;;18.80;99.90;;;19.68;100.00;97823.53;5064464;28;20878;-81
2022/08/19 04:15:31;;;;;;;10.83;9.70;;;18.70;99.90;;;19.67;100.00;97830.69;5066668;28;20574;-80
2022/08/19 04:18:00;;;;;;;15.30;10.80;;;18.70;99.90;;;19.66;100.00;97837.03;5062421;28;20460;-80
2022/08/19 04:20:29;;;;;;;12.73;8.67;;;18.70;99.90;;;19.62;100.00;97838.59;5062341;28;20521;-81
2022/08/19 04:22:59;;;;;;;12.23;9.80;;;18.70;99.90;;;19.58;100.00;97827.66;5063141;28;20525;-81
2022/08/19 04:25:28;;;;;;;13.00;10.90;;;18.60;99.90;;;19.54;100.00;97837.16;5064154;28;20519;-79
2022/08/19 04:27:58;;;;;;;11.53;10.03;;;18.60;99.90;;;19.54;100.00;97829.22;5061207;28;20468;-82
2022/08/19 04:30:27;;;;;;;13.37;10.00;;;18.50;99.90;;;19.52;100.00;97831.31;5062955;28;20496;-83
2022/08/19 04:32:58;;;;;;;14.37;9.97;;;18.50;99.90;;;19.49;100.00;97828.38;5058652;28;20517;-82
2022/08/19 04:35:27;;;;;;;12.23;9.80;;;18.60;99.90;;;19.45;100.00;97829.91;5062218;28;21497;-83
2022/08/19 04:37:56;;;;;;;12.13;9.33;;;18.50;99.90;;;19.45;100.00;97833.38;5061592;28;21000;-82
2022/08/19 04:43:15;;;;;;;10.83;9.30;;;18.50;99.90;;;19.46;100.00;97834.97;5062613;28;20512;-82
2022/08/19 04:45:44;;;;;;;11.17;9.60;;;18.50;99.90;;;19.42;100.00;97828.56;5061564;28;20510;-82
2022/08/19 04:48:14;;;;;;;13.43;9.53;;;18.50;99.90;;;19.41;100.00;97840.22;5059665;28;20495;-82
2022/08/19 04:50:58;;;;;;;10.70;8.63;;;18.40;99.90;;;19.41;100.00;97839.41;5061331;28;20989;-80
2022/08/19 04:53:28;;;;;;;11.30;9.63;;;18.30;99.90;;;19.40;100.00;97838.56;5061719;28;20490;-80
2022/08/19 04:56:10;;;;;;;12.00;9.60;;;18.40;99.90;;;19.39;100.00;97837.00;5063169;28;20925;-80
2022/08/19 04:58:43;;;;;;;11.00;9.37;;;18.40;99.90;;;19.37;100.00;97836.41;5063984;28;20464;-80
2022/08/19 05:01:14;;;;;;;12.80;9.20;;;18.40;99.90;;;19.33;100.00;97837.97;5062088;28;20465;-80
2022/08/19 05:03:44;;;;;;;11.33;9.23;;;18.30;99.90;;;19.28;100.00;97845.88;5062920;28;20552;-80
2022/08/19 05:06:17;;;;;;;13.70;9.00;;;18.40;99.90;;;19.28;100.00;97845.88;5061551;28;20464;-80
2022/08/19 05:08:47;;;;;;;13.63;10.23;;;18.40;99.90;;;19.29;100.00;97847.50;5063761;28;21012;-80
2022/08/19 05:11:21;;;;;;;15.00;10.30;;;18.40;99.90;;;19.32;100.00;97840.88;5063547;28;20550;-80
2022/08/19 05:13:56;;;;;;;16.03;9.03;;;18.40;99.90;;;19.30;100.00;97843.75;5064593;28;20495;-90
2022/08/19 05:16:28;;;;;;;16.07;9.40;;;18.40;99.90;;;19.32;100.00;97846.19;5064702;28;20845;-80
2022/08/19 05:24:33;;;;;;;12.27;8.60;;;18.30;99.90;;;19.30;100.00;97854.38;5065740;28;20476;-80
2022/08/19 05:27:05;;;;;;;12.07;9.93;;;18.30;99.90;;;19.31;100.00;97850.69;5065125;28;20958;-80
2022/08/19 05:29:36;;;;;;;16.73;11.30;;;18.30;99.90;;;19.29;100.00;97855.44;5061771;28;20437;-81
2022/08/19 05:32:08;;;;;;;17.30;10.40;;;18.30;99.90;;;19.30;100.00;97853.59;5059167;28;20492;-81
2022/08/19 05:34:38;;;;;;;11.30;9.80;;;18.30;99.90;;;19.25;100.00;97851.69;5062393;28;20468;-80
2022/08/19 05:37:08;;;;;;;12.73;9.23;;;18.40;99.90;;;19.24;100.00;97850.06;5063516;28;20846;-80
2022/08/19 05:39:40;;;;;;;13.37;9.77;;;18.40;99.90;;;19.22;100.00;97852.19;5063246;28;20464;-81
2022/08/19 05:42:12;;;;;;;10.80;9.70;;;18.40;99.90;;;19.20;100.00;97848.94;5062809;28;20509;-81
2022/08/19 05:44:44;;;;;;;16.60;9.70;;;18.40;99.90;;;19.18;100.00;97850.25;5060576;28;20484;-81
2022/08/19 05:47:15;;;;;;;13.57;9.70;;;18.30;99.90;;;19.17;100.00;97857.41;5060832;28;20461;-81
2022/08/19 05:49:44;;;;;;;15.13;10.73;;;18.30;99.90;;;19.19;100.00;97851.88;5059790;28;20464;-80
2022/08/19 05:52:16;;;;;;;12.10;9.83;;;18.30;99.90;;;19.20;100.00;97858.75;5063143;28;20530;-81
2022/08/19 05:54:48;;;;;;;16.57;9.77;;;18.30;99.90;;;19.17;100.00;97854.75;5063746;28;20467;-81
2022/08/19 05:57:20;;;;;;;11.80;9.73;;;18.30;99.90;;;19.18;100.00;97855.56;5063785;28;20487;-82
2022/08/19 05:59:51;;;;;;;12.10;9.20;;;18.30;99.90;;;19.19;100.00;97860.63;5059456;28;20461;-82
2022/08/19 06:02:26;;;;;;;16.00;9.40;;;18.20;99.90;;;19.18;100.00;97856.34;5063198;28;20821;-83
2022/08/19 06:04:54;;;;;;;12.83;10.90;;;18.20;99.90;;;19.15;100.00;97861.34;5059852;28;20844;-82
2022/08/19 06:07:24;;;;;;;14.93;10.67;;;18.30;99.90;;;19.17;100.00;97861.91;5061585;28;20495;-81
2022/08/19 06:09:53;;;;;;;15.53;9.07;;;18.30;99.90;;;19.16;100.00;97861.09;5059733;28;20463;-82
2022/08/19 06:12:32;;;;;;;14.90;10.20;;;18.20;99.90;;;19.17;100.00;97868.00;5062329;28;20468;-81
2022/08/19 06:15:07;;;;;;;18.93;9.10;;;18.20;99.90;;;19.18;100.00;97866.16;5058241;28;20463;-81
2022/08/19 06:17:38;;;;;;;14.30;10.80;;;18.20;99.90;;;19.17;100.00;97870.66;5061044;28;20561;-81
2022/08/19 06:20:13;;;;;;;13.13;9.80;;;18.30;99.90;;;19.17;100.00;97886.56;5060924;28;20496;-81
2022/08/19 06:22:45;;;;;;;13.40;9.90;;;18.20;99.90;;;19.18;100.00;97890.03;5061915;28;20955;-81
2022/08/19 06:25:16;;;;;;;14.23;9.10;;;18.20;99.90;;;19.15;100.00;97888.66;5059631;28;20502;-81
2022/08/19 06:27:46;;;;;;;12.60;9.20;;;18.20;99.90;;;19.18;100.00;97888.19;5061377;28;20825;-81
2022/08/19 06:30:37;;;;;;;12.10;9.63;;;18.30;99.90;;;19.19;100.00;97895.09;5060990;28;20460;-81
2022/08/19 06:33:06;;;;;;;12.30;9.77;;;18.30;99.90;;;19.20;100.00;97903.81;5058962;28;20468;-81
2022/08/19 06:35:39;;;;;;;12.70;9.57;;;18.30;99.90;;;19.21;100.00;97908.09;5064335;28;20868;-81
2022/08/19 06:38:09;;;;;;;14.20;10.10;;;18.30;99.90;;;19.23;100.00;97909.44;5060930;28;20452;-81
2022/08/19 06:40:40;;;;;;;14.27;10.93;;;18.30;99.90;;;19.26;100.00;97911.63;5061599;28;20476;-80
2022/08/19 06:43:09;;;;;;;11.50;9.60;;;18.30;99.90;;;19.28;100.00;97928.06;5059972;28;20467;-80
2022/08/19 06:45:40;;;;;;;16.50;10.50;;;18.30;99.90;;;19.34;100.00;97928.94;5060343;28;20461;-81
2022/08/19 06:48:10;;;;;;;13.30;10.50;;;18.30;99.90;;;19.37;100.00;97925.78;5059574;28;21217;-80
2022/08/19 06:50:39;;;;;;;12.13;9.80;;;18.40;99.90;;;19.39;100.00;97929.00;5058949;28;20883;-81
2022/08/19 06:53:08;;;;;;;14.50;10.43;;;18.40;99.90;;;19.44;100.00;97923.78;5059570;28;20454;-81
2022/08/19 06:55:40;;;;;;;13.70;10.17;;;18.40;99.90;;;19.47;100.00;97934.72;5061721;28;20464;-81
2022/08/19 06:58:10;;;;;;;12.03;9.27;;;18.40;99.90;;;19.48;100.00;97930.22;5062734;28;20477;-81
2022/08/19 07:00:41;;;;;;;12.67;10.10;;;18.50;99.90;;;19.53;100.00;97922.31;5062696;28;20876;-80
2022/08/19 07:03:10;;;;;;;12.67;9.40;;;18.60;99.90;;;19.58;100.00;97928.47;5062165;28;20471;-80
2022/08/19 07:05:43;;;;;;;10.20;8.67;;;18.60;99.90;;;19.64;100.00;97934.66;5060939;28;20464;-87
2022/08/19 07:08:13;;;;;;;26.03;17.03;;;18.60;99.90;;;19.71;100.00;97934.47;5058963;28;20460;-80
2022/08/19 07:10:45;;;;;;;14.27;9.80;;;18.70;99.90;;;19.76;100.00;97930.03;5060587;28;20490;-81
2022/08/19 07:13:14;;;;;;;15.97;9.57;;;18.70;99.90;;;19.81;100.00;97929.28;5060596;28;20460;-82
2022/08/19 07:15:46;;;;;;;15.37;9.57;;;18.80;99.90;;;19.87;100.00;97928.28;5061001;28;20464;-81
2022/08/19 07:18:15;;;;;;;15.40;9.57;;;18.90;99.90;;;19.94;100.00;97931.53;5060911;28;20483;-81
2022/08/19 07:20:47;;;;;;;17.43;9.50;;;19.00;99.90;;;20.01;100.00;97937.47;5058640;28;20561;-81
2022/08/19 07:23:16;;;;;;;13.43;9.07;;;19.10;99.90;;;20.08;100.00;97925.59;5058857;28;20469;-81
2022/08/19 07:25:46;;;;;;;11.93;8.50;;;19.10;99.90;;;20.15;100.00;97924.59;5060945;28;21427;-81
2022/08/19 07:28:20;;;;;;;14.07;8.13;;;19.20;99.90;;;20.25;100.00;97925.47;5061609;28;20464;-82
2022/08/19 07:30:53;;;;;;;15.33;8.73;;;19.30;99.90;;;20.32;100.00;97927.97;5059106;28;20468;-81
2022/08/19 07:33:23;;;;;;;15.53;12.00;;;19.40;99.90;;;20.42;100.00;97934.16;5060276;28;20893;-82
2022/08/19 07:35:55;;;;;;;18.90;13.03;;;19.50;99.90;;;20.54;100.00;97934.81;5063456;28;20448;-81
2022/08/19 07:38:24;;;;;;;332.40;200.23;;;19.70;99.90;;;20.67;100.00;97932.78;5061128;28;20970;-87
2022/08/19 07:40:53;;;;;;;41.33;18.97;;;19.80;99.90;;;20.78;100.00;97929.13;5059587;28;20526;-81
2022/08/19 07:43:25;;;;;;;18.60;13.40;;;20.00;99.90;;;20.88;100.00;97922.03;5063196;28;20462;-81
2022/08/19 07:46:04;;;;;;;24.77;15.13;;;20.10;99.90;;;21.02;100.00;97927.72;5058736;28;20491;-80
2022/08/19 07:48:34;;;;;;;19.53;14.50;;;20.30;99.90;;;21.14;100.00;97927.56;5059134;28;20638;-80
2022/08/19 07:51:07;;;;;;;18.60;12.03;;;20.40;99.90;;;21.25;100.00;97919.34;5058738;28;20979;-81
2022/08/19 07:53:38;;;;;;;18.00;13.47;;;20.60;99.90;;;21.39;100.00;97922.34;5062230;28;20492;-81
2022/08/19 07:56:08;;;;;;;18.70;11.00;;;20.70;99.90;;;21.47;100.00;97924.53;5058459;28;20974;-81
2022/08/19 07:58:44;;;;;;;25.40;13.20;;;20.70;99.90;;;21.52;100.00;97917.34;5062210;28;20487;-87
2022/08/19 08:01:19;;;;;;;16.50;11.33;;;20.90;99.90;;;21.62;100.00;97915.81;5059165;28;20456;-80
2022/08/19 08:09:26;;;;;;;15.47;9.73;;;21.10;99.90;;;21.89;100.00;97924.41;5058075;28;20468;-80
2022/08/19 08:11:59;;;;;;;8.87;7.27;;;21.30;99.40;;;21.97;100.00;97932.69;5058734;28;20545;-80
2022/08/19 08:14:43;;;;;;;11.20;6.97;;;21.30;99.20;;;22.07;100.00;97937.28;5063659;28;20467;-81
2022/08/19 08:17:19;;;;;;;13.03;7.37;;;21.40;98.90;;;22.15;100.00;97936.72;5063864;28;20502;-81
2022/08/19 08:20:08;;;;;;;15.83;7.13;;;21.50;98.20;;;22.23;100.00;97938.88;5064310;28;20480;-81
2022/08/19 08:25:25;;;;;;;10.70;8.30;;;21.70;97.90;;;22.38;99.20;97922.94;5064146;28;21020;-81
2022/08/19 08:28:00;;;;;;;9.10;6.23;;;21.80;97.80;;;22.44;95.52;97934.38;5061198;28;20923;-81
2022/08/19 08:30:32;;;;;;;12.40;6.77;;;21.80;97.10;;;22.49;92.12;97919.19;5065379;28;20521;-81
2022/08/19 08:33:03;;;;;;;9.27;7.37;;;21.80;96.60;;;22.55;91.94;97923.47;5063289;28;20453;-80
2022/08/19 08:35:33;;;;;;;6.83;5.93;;;21.90;96.60;;;22.61;91.92;97926.13;5062633;28;20563;-81
2022/08/19 08:38:04;;;;;;;7.83;6.00;;;22.00;96.60;;;22.67;90.25;97925.06;5065274;28;20573;-80
2022/08/19 08:40:44;;;;;;;9.47;6.10;;;22.00;96.40;;;22.73;90.62;97924.81;5062433;28;20514;-81
2022/08/19 08:43:28;;;;;;;6.50;5.53;;;22.00;96.30;;;22.77;89.49;97917.88;5061345;28;20498;-80
2022/08/19 08:46:05;;;;;;;8.43;5.60;;;22.10;96.00;;;22.84;88.20;97920.28;5063825;28;20495;-80
2022/08/19 08:48:46;;;;;;;6.37;4.80;;;22.10;95.80;;;22.90;88.42;97924.53;5063985;28;20478;-81
2022/08/19 08:51:36;;;;;;;10.13;5.60;;;22.20;95.90;;;22.92;82.23;97911.72;5061137;28;20970;-80
2022/08/19 08:54:10;;;;;;;89.43;54.73;;;22.30;94.60;;;22.97;83.14;97909.84;5061651;28;20461;-81
2022/08/19 08:56:42;;;;;;;8.07;6.00;;;22.30;94.90;;;23.03;81.82;97903.44;5061614;28;20495;-80
2022/08/19 08:59:20;;;;;;;6.20;4.73;;;22.40;94.40;;;23.08;81.18;97903.41;5062149;28;20531;-81
2022/08/19 09:01:49;;;;;;;8.20;5.40;;;22.40;94.30;;;23.15;80.14;97899.69;5060529;28;21804;-81
2022/08/19 09:04:19;;;;;;;8.20;5.23;;;22.50;94.10;;;23.19;79.96;97893.50;5063168;28;20460;-81
2022/08/19 09:07:03;;;;;;;6.90;4.80;;;22.50;94.00;;;23.23;78.41;97891.91;5060724;28;20543;-80
2022/08/19 09:09:57;;;;;;;6.10;4.93;;;22.70;93.60;;;23.27;78.16;97887.63;5062876;28;20845;-81
2022/08/19 09:12:40;;;;;;;6.40;4.50;;;22.70;93.50;;;23.33;76.87;97891.06;5059183;28;20478;-81
2022/08/19 09:15:15;;;;;;;7.00;5.13;;;22.80;93.20;;;23.36;77.09;97891.31;5063079;28;21026;-80
2022/08/19 09:17:44;;;;;;;6.20;4.03;;;22.80;93.30;;;23.39;78.03;97885.44;5063752;28;21078;-81
2022/08/19 09:20:22;;;;;;;5.77;4.33;;;22.80;93.60;;;23.44;78.10;97890.78;5061698;28;20456;-81
2022/08/19 09:22:53;;;;;;;6.47;5.60;;;22.80;93.50;;;23.51;76.86;97888.63;5062711;28;20456;-81
2022/08/19 09:25:24;;;;;;;8.00;4.80;;;22.90;93.30;;;23.53;76.87;97877.69;5061501;28;20468;-81
2022/08/19 09:28:02;;;;;;;8.47;4.70;;;22.90;93.30;;;23.57;76.52;97893.94;5059657;28;20952;-81
2022/08/19 09:30:43;;;;;;;8.00;5.70;;;23.00;93.20;;;23.63;76.40;97882.16;5060405;28;20464;-81
2022/08/19 09:33:12;;;;;;;4.67;4.17;;;23.00;93.30;;;23.70;73.81;97896.81;5060134;28;20510;-80
2022/08/19 09:35:42;;;;;;;5.73;4.47;;;23.10;92.60;;;23.74;73.54;97886.38;5062820;28;20506;-81
2022/08/19 09:38:21;;;;;;;5.57;4.67;;;23.20;92.60;;;23.77;73.80;97897.31;5061168;28;20583;-81
2022/08/19 09:40:50;;;;;;;7.73;4.67;;;23.20;92.50;;;23.76;71.09;97894.91;5062742;28;20492;-81
2022/08/19 09:43:18;;;;;;;5.63;5.07;;;23.10;91.90;;;23.82;71.90;97896.47;5061045;28;20554;-80
2022/08/19 09:46:01;;;;;;;4.53;4.13;;;23.10;92.30;;;23.87;72.34;97894.59;5061886;28;20823;-81
2022/08/19 09:48:31;;;;;;;12.80;5.67;;;23.10;92.40;;;23.89;70.44;97888.97;5061278;28;20472;-82
2022/08/19 09:51:07;;;;;;;9.63;5.53;;;23.20;92.00;;;23.94;70.12;97888.94;5063572;28;20456;-82
2022/08/19 09:53:40;;;;;;;10.50;4.70;;;23.40;91.90;;;23.95;70.28;97894.00;5063784;28;21318;-81
2022/08/19 09:56:09;;;;;;;9.53;5.67;;;23.40;91.80;;;24.00;70.10;97895.84;5062454;28;20496;-81
2022/08/19 09:58:39;;;;;;;6.07;4.70;;;23.40;92.00;;;24.04;71.31;97900.38;5062458;28;20527;-81
2022/08/19 10:01:09;;;;;;;12.20;4.93;;;23.40;92.20;;;24.08;71.54;97903.28;5063005;28;20873;-81
2022/08/19 10:03:38;;;;;;;7.77;5.00;;;23.40;92.20;;;24.12;67.73;97898.97;5062615;28;20590;-81
2022/08/19 10:06:08;;;;;;;4.70;4.30;;;23.50;91.30;;;24.14;66.55;97899.53;5061376;28;20981;-80
2022/08/19 10:08:47;;;;;;;10.00;5.73;;;23.50;91.00;;;24.15;67.27;97887.75;5061658;28;20463;-82
2022/08/19 10:11:19;;;;;;;4.50;4.00;;;23.60;91.10;;;24.21;66.34;97891.19;5062424;28;20610;-80
2022/08/19 10:14:02;;;;;;;5.10;3.80;;;23.60;91.00;;;24.23;63.68;97902.38;5063296;28;20488;-81
2022/08/19 10:16:30;;;;;;;5.77;4.33;;;23.60;90.30;;;24.27;65.07;97895.41;5062927;28;20906;-80
2022/08/19 10:19:09;;;;;;;9.33;4.17;;;23.60;90.80;;;24.33;65.16;97895.09;5061391;28;20523;-81
2022/08/19 10:21:40;;;;;;;8.70;5.13;;;23.60;90.80;;;24.39;66.64;97888.66;5059380;28;20518;-81
2022/08/19 10:24:09;;;;;;;9.13;4.50;;;23.70;91.20;;;24.46;65.29;97891.00;5059649;28;20473;-81
2022/08/19 10:26:44;;;;;;;5.73;4.27;;;23.90;90.80;;;24.47;64.96;97887.25;5062318;28;20468;-81
2022/08/19 10:29:15;;;;;;;5.10;4.33;;;23.80;90.70;;;24.49;64.44;97890.44;5060233;28;20456;-81
2022/08/19 10:32:02;;;;;;;12.53;5.70;;;23.80;90.70;;;24.51;65.86;97894.41;5061820;28;20464;-80
2022/08/19 10:34:33;;;;;;;12.90;4.87;;;23.90;91.00;;;24.53;66.45;97881.59;5057640;28;20464;-80
2022/08/19 10:37:05;;;;;;;7.07;5.73;;;24.00;91.30;;;24.60;66.67;97877.78;5059374;28;20461;-81
2022/08/19 10:39:39;;;;;;;6.10;4.47;;;24.00;91.20;;;24.66;64.52;97882.00;5059845;28;20486;-81
2022/08/19 10:42:12;;;;;;;6.03;4.40;;;24.10;90.60;;;24.69;61.98;97881.44;5059491;28;20480;-81
2022/08/19 10:44:42;;;;;;;8.20;6.03;;;24.10;90.00;;;24.70;63.29;97881.16;5058243;28;20551;-81